sensor_id;sensor_type;location;lat;lon;timestamp;temperature;humidity
8537;DHT22;4306;50.210;10.628;2023-04-03T00:02:01;3.00;99.90
8537;DHT22;4306;50.210;10.628;2023-04-03T00:04:28;3.00;99.90
8537;DHT22;4306;50.210;10.628;2023-04-03T00:06:56;3.00;99.90
8537;DHT22;4306;50.210;10.628;2023-04-03T00:09:23;3.00;99.90
8537;DHT22;4306;50.210;10.628;2023-04-03T00:11:50;3.00;99.90
8537;DHT22;4306;50.210;10.628;2023-04-03T00:14:17;3.00;99.90
8537;DHT22;4306;50.210;10.628;2023-04-03T00:16:44;3.00;99.90
8537;DHT22;4306;50.210;10.628;2023-04-03T00:19:11;3.00;99.90
8537;DHT22;4306;50.210;10.628;2023-04-03T00:21:38;3.00;99.90
8537;DHT22;4306;50.210;10.628;2023-04-03T00:24:07;2.90;99.90
8537;DHT22;4306;50.210;10.628;2023-04-03T00:26:34;2.90;99.90
8537;DHT22;4306;50.210;10.628;2023-04-03T00:29:00;3.00;99.90
8537;DHT22;4306;50.210;10.628;2023-04-03T00:31:27;3.00;99.90
8537;DHT22;4306;50.210;10.628;2023-04-03T00:33:54;3.00;99.90
8537;DHT22;4306;50.210;10.628;2023-04-03T00:36:21;2.90;99.90
8537;DHT22;4306;50.210;10.628;2023-04-03T00:38:48;2.90;99.90
8537;DHT22;4306;50.210;10.628;2023-04-03T00:41:16;2.80;99.90
8537;DHT22;4306;50.210;10.628;2023-04-03T00:43:43;2.80;99.90
8537;DHT22;4306;50.210;10.628;2023-04-03T00:46:10;2.80;99.90
8537;DHT22;4306;50.210;10.628;2023-04-03T00:48:40;2.80;99.90
8537;DHT22;4306;50.210;10.628;2023-04-03T00:51:11;2.80;99.90
8537;DHT22;4306;50.210;10.628;2023-04-03T00:53:41;2.70;99.90
8537;DHT22;4306;50.210;10.628;2023-04-03T00:56:13;2.80;99.90
8537;DHT22;4306;50.210;10.628;2023-04-03T00:58:45;2.80;99.90
8537;DHT22;4306;50.210;10.628;2023-04-03T01:01:16;2.80;99.90
8537;DHT22;4306;50.210;10.628;2023-04-03T01:03:45;2.80;99.90
8537;DHT22;4306;50.210;10.628;2023-04-03T01:06:13;2.80;99.90
8537;DHT22;4306;50.210;10.628;2023-04-03T01:08:42;2.80;99.90
8537;DHT22;4306;50.210;10.628;2023-04-03T01:11:09;2.70;99.90
8537;DHT22;4306;50.210;10.628;2023-04-03T01:13:36;2.80;99.90
8537;DHT22;4306;50.210;10.628;2023-04-03T01:16:05;2.80;99.90
8537;DHT22;4306;50.210;10.628;2023-04-03T01:18:32;2.80;99.90
8537;DHT22;4306;50.210;10.628;2023-04-03T01:21:28;2.80;99.90
8537;DHT22;4306;50.210;10.628;2023-04-03T01:24:16;2.70;99.90
8537;DHT22;4306;50.210;10.628;2023-04-03T01:26:46;2.80;99.90
8537;DHT22;4306;50.210;10.628;2023-04-03T01:29:14;2.80;99.90
8537;DHT22;4306;50.210;10.628;2023-04-03T01:31:49;2.70;99.90
8537;DHT22;4306;50.210;10.628;2023-04-03T01:34:16;2.80;99.90
8537;DHT22;4306;50.210;10.628;2023-04-03T01:36:43;2.70;99.90
8537;DHT22;4306;50.210;10.628;2023-04-03T01:39:10;2.80;99.90
8537;DHT22;4306;50.210;10.628;2023-04-03T01:41:37;2.80;99.90
8537;DHT22;4306;50.210;10.628;2023-04-03T01:44:04;2.70;99.90
8537;DHT22;4306;50.210;10.628;2023-04-03T01:46:31;2.70;99.90
8537;DHT22;4306;50.210;10.628;2023-04-03T01:49:00;2.80;99.90
8537;DHT22;4306;50.210;10.628;2023-04-03T01:51:27;2.70;99.90
8537;DHT22;4306;50.210;10.628;2023-04-03T01:53:54;2.70;99.90
8537;DHT22;4306;50.210;10.628;2023-04-03T01:56:21;2.70;99.90
8537;DHT22;4306;50.210;10.628;2023-04-03T01:58:48;2.60;99.90
8537;DHT22;4306;50.210;10.628;2023-04-03T02:01:15;2.50;99.90
8537;DHT22;4306;50.210;10.628;2023-04-03T02:03:41;2.50;99.90
8537;DHT22;4306;50.210;10.628;2023-04-03T02:06:10;2.40;99.90
8537;DHT22;4306;50.210;10.628;2023-04-03T02:08:37;2.40;99.90
8537;DHT22;4306;50.210;10.628;2023-04-03T02:11:03;2.30;99.90
8537;DHT22;4306;50.210;10.628;2023-04-03T02:13:30;2.30;99.90
8537;DHT22;4306;50.210;10.628;2023-04-03T02:15:57;2.30;99.90
8537;DHT22;4306;50.210;10.628;2023-04-03T02:18:24;2.30;99.90
8537;DHT22;4306;50.210;10.628;2023-04-03T02:20:51;2.20;99.90
8537;DHT22;4306;50.210;10.628;2023-04-03T02:23:19;2.20;99.90
8537;DHT22;4306;50.210;10.628;2023-04-03T02:25:46;2.20;99.90
8537;DHT22;4306;50.210;10.628;2023-04-03T02:28:14;2.00;99.90
8537;DHT22;4306;50.210;10.628;2023-04-03T02:30:41;2.00;99.90
8537;DHT22;4306;50.210;10.628;2023-04-03T02:33:08;2.00;99.90
8537;DHT22;4306;50.210;10.628;2023-04-03T02:35:35;1.90;99.90
8537;DHT22;4306;50.210;10.628;2023-04-03T02:38:02;1.80;99.90
8537;DHT22;4306;50.210;10.628;2023-04-03T02:40:30;1.80;99.90
8537;DHT22;4306;50.210;10.628;2023-04-03T02:42:57;1.80;99.90
8537;DHT22;4306;50.210;10.628;2023-04-03T02:45:24;1.70;99.90
8537;DHT22;4306;50.210;10.628;2023-04-03T02:47:51;1.70;99.90
8537;DHT22;4306;50.210;10.628;2023-04-03T02:50:18;1.80;99.90
8537;DHT22;4306;50.210;10.628;2023-04-03T02:52:45;1.70;99.90
8537;DHT22;4306;50.210;10.628;2023-04-03T02:55:14;1.70;99.90
8537;DHT22;4306;50.210;10.628;2023-04-03T02:57:43;1.60;99.90
8537;DHT22;4306;50.210;10.628;2023-04-03T03:00:10;1.70;99.90
8537;DHT22;4306;50.210;10.628;2023-04-03T03:02:37;1.60;99.90
8537;DHT22;4306;50.210;10.628;2023-04-03T03:05:04;1.50;99.90
8537;DHT22;4306;50.210;10.628;2023-04-03T03:07:32;1.50;99.90
8537;DHT22;4306;50.210;10.628;2023-04-03T03:09:58;1.50;99.90
8537;DHT22;4306;50.210;10.628;2023-04-03T03:12:26;1.40;99.90
8537;DHT22;4306;50.210;10.628;2023-04-03T03:14:54;1.40;99.90
8537;DHT22;4306;50.210;10.628;2023-04-03T03:17:21;1.40;99.90
8537;DHT22;4306;50.210;10.628;2023-04-03T03:19:47;1.40;99.90
8537;DHT22;4306;50.210;10.628;2023-04-03T03:22:15;1.40;99.90
8537;DHT22;4306;50.210;10.628;2023-04-03T03:24:42;1.40;99.90
8537;DHT22;4306;50.210;10.628;2023-04-03T03:27:09;1.40;99.90
8537;DHT22;4306;50.210;10.628;2023-04-03T03:29:36;1.40;99.90
8537;DHT22;4306;50.210;10.628;2023-04-03T03:32:04;1.40;99.90
8537;DHT22;4306;50.210;10.628;2023-04-03T03:34:31;1.30;99.90
8537;DHT22;4306;50.210;10.628;2023-04-03T03:36:58;1.40;99.90
8537;DHT22;4306;50.210;10.628;2023-04-03T03:39:25;1.30;99.90
8537;DHT22;4306;50.210;10.628;2023-04-03T03:41:52;1.40;99.90
8537;DHT22;4306;50.210;10.628;2023-04-03T03:44:19;1.40;99.90
8537;DHT22;4306;50.210;10.628;2023-04-03T03:46:46;1.20;99.90
8537;DHT22;4306;50.210;10.628;2023-04-03T03:49:14;1.20;99.90
8537;DHT22;4306;50.210;10.628;2023-04-03T03:51:41;1.20;99.90
8537;DHT22;4306;50.210;10.628;2023-04-03T03:54:09;1.10;99.90
8537;DHT22;4306;50.210;10.628;2023-04-03T03:56:36;1.00;99.90
8537;DHT22;4306;50.210;10.628;2023-04-03T03:59:03;1.10;99.90
8537;DHT22;4306;50.210;10.628;2023-04-03T04:01:30;1.10;99.90
8537;DHT22;4306;50.210;10.628;2023-04-03T04:03:57;1.10;99.90
8537;DHT22;4306;50.210;10.628;2023-04-03T04:06:25;1.20;99.90
8537;DHT22;4306;50.210;10.628;2023-04-03T04:08:52;1.10;99.90
8537;DHT22;4306;50.210;10.628;2023-04-03T04:11:19;1.10;99.90
8537;DHT22;4306;50.210;10.628;2023-04-03T04:13:47;1.10;99.90
8537;DHT22;4306;50.210;10.628;2023-04-03T04:16:14;1.10;99.90
8537;DHT22;4306;50.210;10.628;2023-04-03T04:18:40;1.10;99.90
8537;DHT22;4306;50.210;10.628;2023-04-03T04:21:07;1.10;99.90
8537;DHT22;4306;50.210;10.628;2023-04-03T04:23:36;1.10;99.90
8537;DHT22;4306;50.210;10.628;2023-04-03T04:26:03;1.10;99.90
8537;DHT22;4306;50.210;10.628;2023-04-03T04:28:29;1.00;99.90
8537;DHT22;4306;50.210;10.628;2023-04-03T04:30:56;1.00;99.90
8537;DHT22;4306;50.210;10.628;2023-04-03T04:33:23;1.00;99.90
8537;DHT22;4306;50.210;10.628;2023-04-03T04:35:51;1.00;99.90
8537;DHT22;4306;50.210;10.628;2023-04-03T04:38:17;0.90;99.90
8537;DHT22;4306;50.210;10.628;2023-04-03T04:40:47;0.90;99.90
8537;DHT22;4306;50.210;10.628;2023-04-03T04:43:14;0.90;99.90
8537;DHT22;4306;50.210;10.628;2023-04-03T04:45:41;0.80;99.90
8537;DHT22;4306;50.210;10.628;2023-04-03T04:48:08;0.80;99.90
8537;DHT22;4306;50.210;10.628;2023-04-03T04:50:35;0.80;99.90
8537;DHT22;4306;50.210;10.628;2023-04-03T04:53:02;0.70;99.90
8537;DHT22;4306;50.210;10.628;2023-04-03T04:55:29;0.60;99.90
8537;DHT22;4306;50.210;10.628;2023-04-03T04:57:57;0.60;99.90
8537;DHT22;4306;50.210;10.628;2023-04-03T05:00:24;0.60;99.90
8537;DHT22;4306;50.210;10.628;2023-04-03T05:02:51;0.60;99.90
8537;DHT22;4306;50.210;10.628;2023-04-03T05:05:18;0.60;99.90
8537;DHT22;4306;50.210;10.628;2023-04-03T05:07:45;0.50;99.90
8537;DHT22;4306;50.210;10.628;2023-04-03T05:10:12;0.60;99.90
8537;DHT22;4306;50.210;10.628;2023-04-03T05:12:39;0.50;99.90
8537;DHT22;4306;50.210;10.628;2023-04-03T05:15:08;0.40;99.90
8537;DHT22;4306;50.210;10.628;2023-04-03T05:17:35;0.50;99.90
8537;DHT22;4306;50.210;10.628;2023-04-03T05:20:03;0.40;99.90
8537;DHT22;4306;50.210;10.628;2023-04-03T05:22:30;0.50;99.90
8537;DHT22;4306;50.210;10.628;2023-04-03T05:24:57;0.60;99.90
8537;DHT22;4306;50.210;10.628;2023-04-03T05:27:24;0.50;99.90
8537;DHT22;4306;50.210;10.628;2023-04-03T05:29:54;0.50;99.90
8537;DHT22;4306;50.210;10.628;2023-04-03T05:32:22;0.50;99.90
8537;DHT22;4306;50.210;10.628;2023-04-03T05:34:49;0.40;99.90
8537;DHT22;4306;50.210;10.628;2023-04-03T05:37:16;0.40;99.90
8537;DHT22;4306;50.210;10.628;2023-04-03T05:39:43;0.40;99.90
8537;DHT22;4306;50.210;10.628;2023-04-03T05:42:10;0.50;99.90
8537;DHT22;4306;50.210;10.628;2023-04-03T05:44:37;0.50;99.90
8537;DHT22;4306;50.210;10.628;2023-04-03T05:47:04;0.50;99.90
8537;DHT22;4306;50.210;10.628;2023-04-03T05:49:33;0.60;99.90
8537;DHT22;4306;50.210;10.628;2023-04-03T05:52:00;0.60;99.90
8537;DHT22;4306;50.210;10.628;2023-04-03T05:54:29;0.70;99.90
8537;DHT22;4306;50.210;10.628;2023-04-03T05:56:56;0.70;99.90
8537;DHT22;4306;50.210;10.628;2023-04-03T05:59:23;0.70;99.90
8537;DHT22;4306;50.210;10.628;2023-04-03T06:01:50;0.60;99.90
8537;DHT22;4306;50.210;10.628;2023-04-03T06:04:17;0.60;99.90
8537;DHT22;4306;50.210;10.628;2023-04-03T06:06:50;0.70;99.90
8537;DHT22;4306;50.210;10.628;2023-04-03T06:09:18;0.70;99.90
8537;DHT22;4306;50.210;10.628;2023-04-03T06:11:45;0.70;99.90
8537;DHT22;4306;50.210;10.628;2023-04-03T06:14:12;0.70;99.90
8537;DHT22;4306;50.210;10.628;2023-04-03T06:16:39;0.80;99.90
8537;DHT22;4306;50.210;10.628;2023-04-03T06:19:07;0.80;99.90
8537;DHT22;4306;50.210;10.628;2023-04-03T06:21:34;0.90;99.90
8537;DHT22;4306;50.210;10.628;2023-04-03T06:24:02;1.00;99.90
8537;DHT22;4306;50.210;10.628;2023-04-03T06:26:29;1.00;99.90
8537;DHT22;4306;50.210;10.628;2023-04-03T06:28:56;1.00;99.90
8537;DHT22;4306;50.210;10.628;2023-04-03T06:31:23;1.10;99.90
8537;DHT22;4306;50.210;10.628;2023-04-03T06:33:50;1.10;99.90
8537;DHT22;4306;50.210;10.628;2023-04-03T06:36:18;1.10;99.90
8537;DHT22;4306;50.210;10.628;2023-04-03T06:38:46;1.00;99.90
8537;DHT22;4306;50.210;10.628;2023-04-03T06:41:15;1.10;99.90
8537;DHT22;4306;50.210;10.628;2023-04-03T06:43:43;1.20;99.90
8537;DHT22;4306;50.210;10.628;2023-04-03T06:46:14;1.20;99.90
8537;DHT22;4306;50.210;10.628;2023-04-03T06:48:42;1.30;99.90
8537;DHT22;4306;50.210;10.628;2023-04-03T06:51:16;1.40;99.90
8537;DHT22;4306;50.210;10.628;2023-04-03T06:53:43;1.40;99.90
8537;DHT22;4306;50.210;10.628;2023-04-03T06:56:11;1.50;99.90
8537;DHT22;4306;50.210;10.628;2023-04-03T06:58:39;1.60;99.90
8537;DHT22;4306;50.210;10.628;2023-04-03T07:01:07;1.50;99.90
8537;DHT22;4306;50.210;10.628;2023-04-03T07:03:34;1.40;99.90
8537;DHT22;4306;50.210;10.628;2023-04-03T07:06:02;1.40;99.90
8537;DHT22;4306;50.210;10.628;2023-04-03T07:08:29;1.30;99.90
8537;DHT22;4306;50.210;10.628;2023-04-03T07:10:56;1.40;99.90
8537;DHT22;4306;50.210;10.628;2023-04-03T07:13:23;1.40;99.90
8537;DHT22;4306;50.210;10.628;2023-04-03T07:15:51;1.50;99.90
8537;DHT22;4306;50.210;10.628;2023-04-03T07:18:18;1.60;99.90
8537;DHT22;4306;50.210;10.628;2023-04-03T07:20:45;1.70;99.90
8537;DHT22;4306;50.210;10.628;2023-04-03T07:23:12;1.60;99.90
8537;DHT22;4306;50.210;10.628;2023-04-03T07:25:42;1.70;99.90
8537;DHT22;4306;50.210;10.628;2023-04-03T07:28:09;1.60;99.90
8537;DHT22;4306;50.210;10.628;2023-04-03T07:30:42;1.70;99.90
8537;DHT22;4306;50.210;10.628;2023-04-03T07:33:10;1.80;99.90
8537;DHT22;4306;50.210;10.628;2023-04-03T07:35:38;1.70;99.90
8537;DHT22;4306;50.210;10.628;2023-04-03T07:38:06;1.80;99.90
8537;DHT22;4306;50.210;10.628;2023-04-03T07:40:33;1.80;99.90
8537;DHT22;4306;50.210;10.628;2023-04-03T07:43:00;2.00;99.90
8537;DHT22;4306;50.210;10.628;2023-04-03T07:45:28;1.90;99.90
8537;DHT22;4306;50.210;10.628;2023-04-03T07:47:55;2.00;99.90
8537;DHT22;4306;50.210;10.628;2023-04-03T07:50:23;2.10;99.90
8537;DHT22;4306;50.210;10.628;2023-04-03T07:52:50;2.00;99.90
8537;DHT22;4306;50.210;10.628;2023-04-03T07:55:18;2.20;99.90
8537;DHT22;4306;50.210;10.628;2023-04-03T07:57:45;2.00;99.90
8537;DHT22;4306;50.210;10.628;2023-04-03T08:00:13;2.10;99.90
8537;DHT22;4306;50.210;10.628;2023-04-03T08:02:40;2.30;99.90
8537;DHT22;4306;50.210;10.628;2023-04-03T08:05:07;2.20;99.90
8537;DHT22;4306;50.210;10.628;2023-04-03T08:07:36;2.10;99.90
8537;DHT22;4306;50.210;10.628;2023-04-03T08:10:04;2.20;99.90
8537;DHT22;4306;50.210;10.628;2023-04-03T08:12:31;2.00;99.90
8537;DHT22;4306;50.210;10.628;2023-04-03T08:14:59;2.00;99.90
8537;DHT22;4306;50.210;10.628;2023-04-03T08:17:27;2.10;99.90
8537;DHT22;4306;50.210;10.628;2023-04-03T08:19:54;2.50;99.90
8537;DHT22;4306;50.210;10.628;2023-04-03T08:22:20;2.50;99.90
8537;DHT22;4306;50.210;10.628;2023-04-03T08:24:49;2.40;99.90
8537;DHT22;4306;50.210;10.628;2023-04-03T08:27:16;2.50;99.90
8537;DHT22;4306;50.210;10.628;2023-04-03T08:29:43;2.70;99.90
8537;DHT22;4306;50.210;10.628;2023-04-03T08:32:10;2.60;99.90
8537;DHT22;4306;50.210;10.628;2023-04-03T08:34:37;2.50;99.90
8537;DHT22;4306;50.210;10.628;2023-04-03T08:37:05;2.40;99.90
8537;DHT22;4306;50.210;10.628;2023-04-03T08:39:32;2.50;99.90
8537;DHT22;4306;50.210;10.628;2023-04-03T08:42:05;2.50;99.70
8537;DHT22;4306;50.210;10.628;2023-04-03T08:44:39;2.60;99.90
8537;DHT22;4306;50.210;10.628;2023-04-03T08:47:21;2.30;98.80
8537;DHT22;4306;50.210;10.628;2023-04-03T08:49:53;2.30;99.20
8537;DHT22;4306;50.210;10.628;2023-04-03T08:52:28;2.30;98.50
8537;DHT22;4306;50.210;10.628;2023-04-03T08:55:00;2.30;99.00
8537;DHT22;4306;50.210;10.628;2023-04-03T08:57:34;2.20;98.30
8537;DHT22;4306;50.210;10.628;2023-04-03T09:00:05;2.30;98.70
8537;DHT22;4306;50.210;10.628;2023-04-03T09:02:35;2.30;98.60
8537;DHT22;4306;50.210;10.628;2023-04-03T09:05:11;2.20;98.80
8537;DHT22;4306;50.210;10.628;2023-04-03T09:07:43;2.30;99.30
8537;DHT22;4306;50.210;10.628;2023-04-03T09:10:23;2.40;98.70
8537;DHT22;4306;50.210;10.628;2023-04-03T09:12:57;2.40;98.40
8537;DHT22;4306;50.210;10.628;2023-04-03T09:15:25;2.60;97.80
8537;DHT22;4306;50.210;10.628;2023-04-03T09:18:00;2.60;97.40
8537;DHT22;4306;50.210;10.628;2023-04-03T09:20:39;2.70;96.50
8537;DHT22;4306;50.210;10.628;2023-04-03T09:23:18;2.70;96.40
8537;DHT22;4306;50.210;10.628;2023-04-03T09:25:46;2.70;96.60
8537;DHT22;4306;50.210;10.628;2023-04-03T09:28:14;2.90;96.10
8537;DHT22;4306;50.210;10.628;2023-04-03T09:30:41;2.90;96.40
8537;DHT22;4306;50.210;10.628;2023-04-03T09:33:09;3.00;95.70
8537;DHT22;4306;50.210;10.628;2023-04-03T09:35:37;3.00;94.60
8537;DHT22;4306;50.210;10.628;2023-04-03T09:38:19;3.20;95.20
8537;DHT22;4306;50.210;10.628;2023-04-03T09:40:48;3.20;93.50
8537;DHT22;4306;50.210;10.628;2023-04-03T09:43:26;3.40;96.10
8537;DHT22;4306;50.210;10.628;2023-04-03T09:45:53;3.50;94.00
8537;DHT22;4306;50.210;10.628;2023-04-03T09:48:23;3.60;93.10
8537;DHT22;4306;50.210;10.628;2023-04-03T09:50:59;3.70;92.60
8537;DHT22;4306;50.210;10.628;2023-04-03T09:53:33;3.90;92.70
8537;DHT22;4306;50.210;10.628;2023-04-03T09:56:03;3.80;92.10
8537;DHT22;4306;50.210;10.628;2023-04-03T09:58:35;3.90;92.20
8537;DHT22;4306;50.210;10.628;2023-04-03T10:01:04;4.20;92.10
8537;DHT22;4306;50.210;10.628;2023-04-03T10:03:34;4.10;91.00
8537;DHT22;4306;50.210;10.628;2023-04-03T10:06:03;4.30;91.50
8537;DHT22;4306;50.210;10.628;2023-04-03T10:08:31;4.40;91.60
8537;DHT22;4306;50.210;10.628;2023-04-03T10:11:17;4.70;91.60
8537;DHT22;4306;50.210;10.628;2023-04-03T10:13:54;4.40;90.70
8537;DHT22;4306;50.210;10.628;2023-04-03T10:16:26;4.50;91.60
8537;DHT22;4306;50.210;10.628;2023-04-03T10:19:05;4.70;90.40
8537;DHT22;4306;50.210;10.628;2023-04-03T10:21:43;4.40;88.60
8537;DHT22;4306;50.210;10.628;2023-04-03T10:24:14;4.30;88.50
8537;DHT22;4306;50.210;10.628;2023-04-03T10:26:51;4.30;88.40
8537;DHT22;4306;50.210;10.628;2023-04-03T10:29:39;4.40;87.90
8537;DHT22;4306;50.210;10.628;2023-04-03T10:32:22;4.20;87.50
8537;DHT22;4306;50.210;10.628;2023-04-03T10:34:57;4.50;90.00
8537;DHT22;4306;50.210;10.628;2023-04-03T10:37:30;4.50;88.60
8537;DHT22;4306;50.210;10.628;2023-04-03T10:40:09;4.70;88.40
8537;DHT22;4306;50.210;10.628;2023-04-03T10:42:44;4.70;87.90
8537;DHT22;4306;50.210;10.628;2023-04-03T10:45:23;4.80;88.70
8537;DHT22;4306;50.210;10.628;2023-04-03T10:47:58;4.50;85.10
8537;DHT22;4306;50.210;10.628;2023-04-03T10:50:44;4.30;82.40
8537;DHT22;4306;50.210;10.628;2023-04-03T10:53:23;4.40;83.70
8537;DHT22;4306;50.210;10.628;2023-04-03T10:55:57;4.30;85.70
8537;DHT22;4306;50.210;10.628;2023-04-03T10:58:32;4.40;85.90
8537;DHT22;4306;50.210;10.628;2023-04-03T11:01:07;4.40;90.00
8537;DHT22;4306;50.210;10.628;2023-04-03T11:03:36;4.50;87.70
8537;DHT22;4306;50.210;10.628;2023-04-03T11:06:08;4.30;87.10
8537;DHT22;4306;50.210;10.628;2023-04-03T11:08:40;4.70;89.60
8537;DHT22;4306;50.210;10.628;2023-04-03T11:11:13;4.80;88.30
8537;DHT22;4306;50.210;10.628;2023-04-03T11:13:43;4.80;88.00
8537;DHT22;4306;50.210;10.628;2023-04-03T11:16:16;4.60;87.70
8537;DHT22;4306;50.210;10.628;2023-04-03T11:18:48;4.70;87.40
8537;DHT22;4306;50.210;10.628;2023-04-03T11:21:20;4.70;88.90
8537;DHT22;4306;50.210;10.628;2023-04-03T11:23:48;5.00;89.90
8537;DHT22;4306;50.210;10.628;2023-04-03T11:26:17;4.80;85.90
8537;DHT22;4306;50.210;10.628;2023-04-03T11:28:44;4.90;88.50
8537;DHT22;4306;50.210;10.628;2023-04-03T11:31:32;4.70;83.90
8537;DHT22;4306;50.210;10.628;2023-04-03T11:34:08;4.50;85.40
8537;DHT22;4306;50.210;10.628;2023-04-03T11:36:43;4.60;86.40
8537;DHT22;4306;50.210;10.628;2023-04-03T11:39:19;4.50;83.30
8537;DHT22;4306;50.210;10.628;2023-04-03T11:41:48;4.60;83.50
8537;DHT22;4306;50.210;10.628;2023-04-03T11:44:30;4.80;85.40
8537;DHT22;4306;50.210;10.628;2023-04-03T11:47:00;4.50;83.90
8537;DHT22;4306;50.210;10.628;2023-04-03T11:52:57;4.80;87.40
8537;DHT22;4306;50.210;10.628;2023-04-03T11:55:43;4.90;84.40
8537;DHT22;4306;50.210;10.628;2023-04-03T11:58:13;5.10;85.90
8537;DHT22;4306;50.210;10.628;2023-04-03T12:00:49;5.40;85.50
8537;DHT22;4306;50.210;10.628;2023-04-03T12:09:25;5.60;85.50
8537;DHT22;4306;50.210;10.628;2023-04-03T12:11:53;5.00;81.20
8537;DHT22;4306;50.210;10.628;2023-04-03T12:14:23;4.90;80.90
8537;DHT22;4306;50.210;10.628;2023-04-03T12:16:52;4.90;83.80
8537;DHT22;4306;50.210;10.628;2023-04-03T12:19:40;4.90;81.00
8537;DHT22;4306;50.210;10.628;2023-04-03T12:22:15;4.90;80.60
8537;DHT22;4306;50.210;10.628;2023-04-03T12:24:47;5.10;85.10
8537;DHT22;4306;50.210;10.628;2023-04-03T12:27:36;5.30;85.60
8537;DHT22;4306;50.210;10.628;2023-04-03T12:30:26;5.50;82.00
8537;DHT22;4306;50.210;10.628;2023-04-03T12:33:17;5.40;78.30
8537;DHT22;4306;50.210;10.628;2023-04-03T12:35:56;5.40;81.00
8537;DHT22;4306;50.210;10.628;2023-04-03T12:38:41;5.40;79.70
8537;DHT22;4306;50.210;10.628;2023-04-03T12:41:21;5.10;75.10
8537;DHT22;4306;50.210;10.628;2023-04-03T12:44:01;5.20;79.80
8537;DHT22;4306;50.210;10.628;2023-04-03T12:46:36;5.80;82.00
8537;DHT22;4306;50.210;10.628;2023-04-03T12:49:31;6.00;82.10
8537;DHT22;4306;50.210;10.628;2023-04-03T12:52:00;6.10;78.30
8537;DHT22;4306;50.210;10.628;2023-04-03T12:54:31;6.00;75.90
8537;DHT22;4306;50.210;10.628;2023-04-03T12:57:21;5.80;77.10
8537;DHT22;4306;50.210;10.628;2023-04-03T12:59:49;5.90;77.00
8537;DHT22;4306;50.210;10.628;2023-04-03T13:02:21;5.60;73.50
8537;DHT22;4306;50.210;10.628;2023-04-03T13:04:49;5.80;77.20
8537;DHT22;4306;50.210;10.628;2023-04-03T13:07:21;5.90;73.60
8537;DHT22;4306;50.210;10.628;2023-04-03T13:09:58;5.70;76.90
8537;DHT22;4306;50.210;10.628;2023-04-03T13:12:27;5.90;77.20
8537;DHT22;4306;50.210;10.628;2023-04-03T13:14:56;5.90;75.10
8537;DHT22;4306;50.210;10.628;2023-04-03T13:17:25;6.10;74.90
8537;DHT22;4306;50.210;10.628;2023-04-03T13:19:54;6.20;75.20
8537;DHT22;4306;50.210;10.628;2023-04-03T13:22:27;6.30;74.70
8537;DHT22;4306;50.210;10.628;2023-04-03T13:24:58;6.10;73.10
8537;DHT22;4306;50.210;10.628;2023-04-03T13:27:29;5.90;71.10
8537;DHT22;4306;50.210;10.628;2023-04-03T13:29:58;6.10;76.40
8537;DHT22;4306;50.210;10.628;2023-04-03T13:32:28;6.20;74.80
8537;DHT22;4306;50.210;10.628;2023-04-03T13:34:58;6.30;72.50
8537;DHT22;4306;50.210;10.628;2023-04-03T13:37:28;6.30;75.40
8537;DHT22;4306;50.210;10.628;2023-04-03T13:40:00;6.60;75.00
8537;DHT22;4306;50.210;10.628;2023-04-03T13:42:31;6.30;72.10
8537;DHT22;4306;50.210;10.628;2023-04-03T13:45:19;6.30;70.50
8537;DHT22;4306;50.210;10.628;2023-04-03T13:47:48;6.50;72.00
8537;DHT22;4306;50.210;10.628;2023-04-03T13:50:18;6.50;72.90
8537;DHT22;4306;50.210;10.628;2023-04-03T13:52:47;6.70;71.70
8537;DHT22;4306;50.210;10.628;2023-04-03T13:55:22;6.30;72.80
8537;DHT22;4306;50.210;10.628;2023-04-03T13:57:54;6.30;73.20
8537;DHT22;4306;50.210;10.628;2023-04-03T14:00:36;6.10;72.90
8537;DHT22;4306;50.210;10.628;2023-04-03T14:03:12;6.00;72.20
8537;DHT22;4306;50.210;10.628;2023-04-03T14:05:39;6.10;74.40
8537;DHT22;4306;50.210;10.628;2023-04-03T14:08:06;6.50;72.70
8537;DHT22;4306;50.210;10.628;2023-04-03T14:10:32;6.40;72.60
8537;DHT22;4306;50.210;10.628;2023-04-03T14:13:01;6.30;71.60
8537;DHT22;4306;50.210;10.628;2023-04-03T14:15:30;6.10;71.60
8537;DHT22;4306;50.210;10.628;2023-04-03T14:17:58;5.90;72.40
8537;DHT22;4306;50.210;10.628;2023-04-03T14:20:26;5.70;72.40
8537;DHT22;4306;50.210;10.628;2023-04-03T14:22:53;5.90;73.40
8537;DHT22;4306;50.210;10.628;2023-04-03T14:25:21;5.90;71.90
8537;DHT22;4306;50.210;10.628;2023-04-03T14:27:51;6.10;74.70
8537;DHT22;4306;50.210;10.628;2023-04-03T14:30:22;6.40;71.10
8537;DHT22;4306;50.210;10.628;2023-04-03T14:32:50;6.70;75.70
8537;DHT22;4306;50.210;10.628;2023-04-03T14:35:18;6.70;71.40
8537;DHT22;4306;50.210;10.628;2023-04-03T14:37:46;6.00;66.60
8537;DHT22;4306;50.210;10.628;2023-04-03T14:40:15;5.90;69.30
8537;DHT22;4306;50.210;10.628;2023-04-03T14:42:42;5.70;72.40
8537;DHT22;4306;50.210;10.628;2023-04-03T14:45:12;5.70;71.10
8537;DHT22;4306;50.210;10.628;2023-04-03T14:47:44;5.50;69.80
8537;DHT22;4306;50.210;10.628;2023-04-03T14:50:15;5.80;70.50
8537;DHT22;4306;50.210;10.628;2023-04-03T14:52:43;6.10;71.20
8537;DHT22;4306;50.210;10.628;2023-04-03T14:55:12;6.10;69.70
8537;DHT22;4306;50.210;10.628;2023-04-03T14:57:40;6.10;71.10
8537;DHT22;4306;50.210;10.628;2023-04-03T15:00:11;6.20;72.30
8537;DHT22;4306;50.210;10.628;2023-04-03T15:02:40;6.20;72.40
8537;DHT22;4306;50.210;10.628;2023-04-03T15:05:09;6.00;72.90
8537;DHT22;4306;50.210;10.628;2023-04-03T15:07:39;5.70;71.10
8537;DHT22;4306;50.210;10.628;2023-04-03T15:10:17;6.10;71.30
8537;DHT22;4306;50.210;10.628;2023-04-03T15:12:44;6.00;72.90
8537;DHT22;4306;50.210;10.628;2023-04-03T15:15:12;5.70;73.10
8537;DHT22;4306;50.210;10.628;2023-04-03T15:17:41;5.70;71.30
8537;DHT22;4306;50.210;10.628;2023-04-03T15:20:13;5.60;71.40
8537;DHT22;4306;50.210;10.628;2023-04-03T15:22:40;5.50;73.00
8537;DHT22;4306;50.210;10.628;2023-04-03T15:25:08;5.40;72.80
8537;DHT22;4306;50.210;10.628;2023-04-03T15:27:35;5.50;74.00
8537;DHT22;4306;50.210;10.628;2023-04-03T15:30:02;5.60;73.20
8537;DHT22;4306;50.210;10.628;2023-04-03T15:32:29;5.80;74.30
8537;DHT22;4306;50.210;10.628;2023-04-03T15:34:57;5.70;71.20
8537;DHT22;4306;50.210;10.628;2023-04-03T15:37:24;5.80;71.90
8537;DHT22;4306;50.210;10.628;2023-04-03T15:39:51;5.90;72.00
8537;DHT22;4306;50.210;10.628;2023-04-03T15:42:18;5.50;70.60
8537;DHT22;4306;50.210;10.628;2023-04-03T15:44:45;5.50;72.90
8537;DHT22;4306;50.210;10.628;2023-04-03T15:47:12;5.20;71.30
8537;DHT22;4306;50.210;10.628;2023-04-03T15:49:39;5.30;71.90
8537;DHT22;4306;50.210;10.628;2023-04-03T15:52:07;5.30;71.90
8537;DHT22;4306;50.210;10.628;2023-04-03T15:54:34;5.20;73.60
8537;DHT22;4306;50.210;10.628;2023-04-03T15:57:01;5.10;74.20
8537;DHT22;4306;50.210;10.628;2023-04-03T15:59:28;5.20;74.30
8537;DHT22;4306;50.210;10.628;2023-04-03T16:01:58;5.00;73.90
8537;DHT22;4306;50.210;10.628;2023-04-03T16:04:26;4.90;74.20
8537;DHT22;4306;50.210;10.628;2023-04-03T16:06:53;5.00;75.00
8537;DHT22;4306;50.210;10.628;2023-04-03T16:09:22;5.10;73.50
8537;DHT22;4306;50.210;10.628;2023-04-03T16:11:48;5.30;73.70
8537;DHT22;4306;50.210;10.628;2023-04-03T16:14:15;5.40;74.10
8537;DHT22;4306;50.210;10.628;2023-04-03T16:16:42;5.40;72.20
8537;DHT22;4306;50.210;10.628;2023-04-03T16:19:09;5.20;73.70
8537;DHT22;4306;50.210;10.628;2023-04-03T16:21:39;5.20;74.50
8537;DHT22;4306;50.210;10.628;2023-04-03T16:24:08;5.30;72.70
8537;DHT22;4306;50.210;10.628;2023-04-03T16:26:38;5.10;71.60
8537;DHT22;4306;50.210;10.628;2023-04-03T16:29:05;5.00;71.30